sensor_id;sensor_type;location;lat;lon;timestamp;pressure;altitude;pressure_sealevel;temperature;humidity
15529;BME280;7866;52.280;9.500;2023-01-28T00:01:29;101596.41;;;1.91;79.52
15529;BME280;7866;52.280;9.500;2023-01-28T00:06:31;101593.53;;;1.80;79.45
15529;BME280;7866;52.280;9.500;2023-01-28T00:11:34;101595.50;;;1.92;80.05
15529;BME280;7866;52.280;9.500;2023-01-28T00:16:35;101598.63;;;1.83;79.99
15529;BME280;7866;52.280;9.500;2023-01-28T00:21:37;101595.66;;;1.89;81.41
15529;BME280;7866;52.280;9.500;2023-01-28T00:26:40;101592.50;;;1.98;82.13
15529;BME280;7866;52.280;9.500;2023-01-28T00:31:42;101590.03;;;1.95;82.31
15529;BME280;7866;52.280;9.500;2023-01-28T00:36:43;101591.53;;;1.83;81.30
15529;BME280;7866;52.280;9.500;2023-01-28T00:41:46;101598.81;;;1.80;80.37
15529;BME280;7866;52.280;9.500;2023-01-28T00:46:48;101598.56;;;1.84;79.46
15529;BME280;7866;52.280;9.500;2023-01-28T00:51:50;101593.44;;;1.81;80.12
15529;BME280;7866;52.280;9.500;2023-01-28T00:56:53;101591.31;;;1.88;80.32
15529;BME280;7866;52.280;9.500;2023-01-28T01:01:55;101594.97;;;1.85;80.79
15529;BME280;7866;52.280;9.500;2023-01-28T01:07:11;101591.78;;;1.79;79.72
15529;BME280;7866;52.280;9.500;2023-01-28T01:12:14;101591.03;;;1.77;79.82
15529;BME280;7866;52.280;9.500;2023-01-28T01:17:17;101595.22;;;1.81;81.02
15529;BME280;7866;52.280;9.500;2023-01-28T01:22:19;101588.69;;;1.88;81.40
15529;BME280;7866;52.280;9.500;2023-01-28T01:27:22;101588.25;;;1.80;81.78
15529;BME280;7866;52.280;9.500;2023-01-28T01:32:24;101589.16;;;1.79;82.49
15529;BME280;7866;52.280;9.500;2023-01-28T01:37:26;101583.56;;;1.85;83.19
15529;BME280;7866;52.280;9.500;2023-01-28T01:42:32;101598.97;;;1.77;83.27
15529;BME280;7866;52.280;9.500;2023-01-28T01:47:39;101597.47;;;1.71;83.36
15529;BME280;7866;52.280;9.500;2023-01-28T01:52:42;101596.31;;;1.77;83.44
15529;BME280;7866;52.280;9.500;2023-01-28T01:57:47;101585.31;;;1.68;81.32
15529;BME280;7866;52.280;9.500;2023-01-28T02:02:51;101591.09;;;1.75;81.66
15529;BME280;7866;52.280;9.500;2023-01-28T02:07:56;101599.13;;;1.73;82.25
15529;BME280;7866;52.280;9.500;2023-01-28T02:13:23;101606.34;;;1.70;82.23
15529;BME280;7866;52.280;9.500;2023-01-28T02:18:27;101607.28;;;1.69;79.92
15529;BME280;7866;52.280;9.500;2023-01-28T02:23:38;101623.19;;;1.67;79.48
15529;BME280;7866;52.280;9.500;2023-01-28T02:28:51;101623.50;;;1.79;80.27
15529;BME280;7866;52.280;9.500;2023-01-28T02:33:58;101613.88;;;1.78;80.87
15529;BME280;7866;52.280;9.500;2023-01-28T02:39:08;101611.13;;;1.79;80.63
15529;BME280;7866;52.280;9.500;2023-01-28T02:44:14;101606.03;;;1.76;79.95
15529;BME280;7866;52.280;9.500;2023-01-28T02:49:18;101601.91;;;1.70;80.93
15529;BME280;7866;52.280;9.500;2023-01-28T02:54:32;101596.88;;;1.66;81.02
15529;BME280;7866;52.280;9.500;2023-01-28T02:59:42;101590.22;;;1.59;80.10
15529;BME280;7866;52.280;9.500;2023-01-28T03:04:52;101593.53;;;1.62;79.44
15529;BME280;7866;52.280;9.500;2023-01-28T03:09:57;101595.69;;;1.56;79.35
15529;BME280;7866;52.280;9.500;2023-01-28T03:15:07;101590.59;;;1.51;79.22
15529;BME280;7866;52.280;9.500;2023-01-28T03:20:34;101585.97;;;1.56;79.10
15529;BME280;7866;52.280;9.500;2023-01-28T03:25:59;101600.47;;;1.47;75.96
15529;BME280;7866;52.280;9.500;2023-01-28T03:31:21;101581.53;;;1.57;75.20
15529;BME280;7866;52.280;9.500;2023-01-28T03:36:42;101569.28;;;1.56;75.44
15529;BME280;7866;52.280;9.500;2023-01-28T03:41:59;101578.97;;;1.55;76.61
15529;BME280;7866;52.280;9.500;2023-01-28T03:47:02;101587.84;;;1.70;77.07
15529;BME280;7866;52.280;9.500;2023-01-28T03:52:06;101591.75;;;1.63;76.51
15529;BME280;7866;52.280;9.500;2023-01-28T03:57:08;101594.16;;;1.67;77.67
15529;BME280;7866;52.280;9.500;2023-01-28T04:02:11;101587.09;;;1.68;78.93
15529;BME280;7866;52.280;9.500;2023-01-28T04:07:14;101596.19;;;1.62;79.32
15529;BME280;7866;52.280;9.500;2023-01-28T04:12:16;101597.28;;;1.58;79.29
15529;BME280;7866;52.280;9.500;2023-01-28T04:17:20;101608.94;;;1.54;79.62
15529;BME280;7866;52.280;9.500;2023-01-28T04:22:21;101620.03;;;1.61;79.86
15529;BME280;7866;52.280;9.500;2023-01-28T04:27:23;101620.75;;;1.47;80.64
15529;BME280;7866;52.280;9.500;2023-01-28T04:32:26;101630.69;;;1.42;79.90
15529;BME280;7866;52.280;9.500;2023-01-28T04:37:27;101626.41;;;1.57;78.54
15529;BME280;7866;52.280;9.500;2023-01-28T04:42:29;101630.94;;;1.37;76.71
15529;BME280;7866;52.280;9.500;2023-01-28T04:47:32;101631.63;;;1.41;78.60
15529;BME280;7866;52.280;9.500;2023-01-28T04:52:33;101624.00;;;1.35;78.09
15529;BME280;7866;52.280;9.500;2023-01-28T04:57:35;101632.38;;;1.43;78.37
15529;BME280;7866;52.280;9.500;2023-01-28T05:02:38;101637.38;;;1.49;78.23
15529;BME280;7866;52.280;9.500;2023-01-28T05:07:40;101630.59;;;1.43;78.32
15529;BME280;7866;52.280;9.500;2023-01-28T05:12:42;101631.69;;;1.39;78.55
15529;BME280;7866;52.280;9.500;2023-01-28T05:17:45;101633.00;;;1.31;77.65
15529;BME280;7866;52.280;9.500;2023-01-28T05:22:47;101626.28;;;1.25;78.10
15529;BME280;7866;52.280;9.500;2023-01-28T05:27:49;101628.38;;;1.36;78.45
15529;BME280;7866;52.280;9.500;2023-01-28T05:32:55;101629.28;;;1.35;78.40
15529;BME280;7866;52.280;9.500;2023-01-28T05:37:57;101628.28;;;1.37;78.58
15529;BME280;7866;52.280;9.500;2023-01-28T05:42:58;101618.59;;;1.38;78.99
15529;BME280;7866;52.280;9.500;2023-01-28T05:48:02;101617.66;;;1.21;77.25
15529;BME280;7866;52.280;9.500;2023-01-28T05:53:04;101622.22;;;1.35;77.99
15529;BME280;7866;52.280;9.500;2023-01-28T05:58:06;101630.22;;;1.34;78.15
15529;BME280;7866;52.280;9.500;2023-01-28T06:03:09;101623.16;;;1.17;76.88
15529;BME280;7866;52.280;9.500;2023-01-28T06:08:10;101630.69;;;1.07;75.69
15529;BME280;7866;52.280;9.500;2023-01-28T06:13:12;101626.75;;;1.16;76.72
15529;BME280;7866;52.280;9.500;2023-01-28T06:18:15;101629.63;;;1.29;77.65
15529;BME280;7866;52.280;9.500;2023-01-28T06:23:16;101635.13;;;1.24;77.99
15529;BME280;7866;52.280;9.500;2023-01-28T06:28:18;101634.91;;;1.29;77.90
15529;BME280;7866;52.280;9.500;2023-01-28T06:33:21;101630.06;;;1.19;78.13
15529;BME280;7866;52.280;9.500;2023-01-28T06:38:23;101636.59;;;1.12;76.99
15529;BME280;7866;52.280;9.500;2023-01-28T06:43:25;101637.22;;;1.35;78.42
15529;BME280;7866;52.280;9.500;2023-01-28T06:48:31;101635.97;;;1.25;78.14
15529;BME280;7866;52.280;9.500;2023-01-28T06:53:32;101636.50;;;1.31;78.03
15529;BME280;7866;52.280;9.500;2023-01-28T06:58:34;101636.22;;;1.37;78.79
15529;BME280;7866;52.280;9.500;2023-01-28T07:03:37;101642.72;;;1.13;78.33
15529;BME280;7866;52.280;9.500;2023-01-28T07:08:39;101646.44;;;1.26;79.26
15529;BME280;7866;52.280;9.500;2023-01-28T07:13:40;101639.22;;;1.30;79.28
15529;BME280;7866;52.280;9.500;2023-01-28T07:18:44;101633.50;;;1.21;79.44
15529;BME280;7866;52.280;9.500;2023-01-28T07:23:45;101642.25;;;1.22;79.14
15529;BME280;7866;52.280;9.500;2023-01-28T07:28:47;101647.78;;;1.17;78.80
15529;BME280;7866;52.280;9.500;2023-01-28T07:33:50;101640.03;;;0.95;77.01
15529;BME280;7866;52.280;9.500;2023-01-28T07:38:51;101643.72;;;1.10;77.83
15529;BME280;7866;52.280;9.500;2023-01-28T07:43:53;101649.19;;;1.25;77.48
15529;BME280;7866;52.280;9.500;2023-01-28T07:48:57;101662.38;;;1.25;77.35
15529;BME280;7866;52.280;9.500;2023-01-28T07:53:58;101659.72;;;1.25;77.19
15529;BME280;7866;52.280;9.500;2023-01-28T07:59:00;101670.91;;;1.30;76.28
15529;BME280;7866;52.280;9.500;2023-01-28T08:04:03;101657.84;;;1.27;76.13
15529;BME280;7866;52.280;9.500;2023-01-28T08:09:06;101662.22;;;1.45;76.67
15529;BME280;7866;52.280;9.500;2023-01-28T08:14:09;101659.44;;;1.48;76.91
15529;BME280;7866;52.280;9.500;2023-01-28T08:19:12;101681.31;;;1.33;76.28
15529;BME280;7866;52.280;9.500;2023-01-28T08:24:13;101689.28;;;1.31;76.13
15529;BME280;7866;52.280;9.500;2023-01-28T08:29:15;101690.31;;;1.29;76.88
15529;BME280;7866;52.280;9.500;2023-01-28T08:34:18;101703.03;;;1.20;76.44
15529;BME280;7866;52.280;9.500;2023-01-28T08:39:19;101712.88;;;1.17;73.99
15529;BME280;7866;52.280;9.500;2023-01-28T08:44:21;101714.63;;;1.53;75.21
15529;BME280;7866;52.280;9.500;2023-01-28T08:49:24;101724.72;;;1.62;75.61
15529;BME280;7866;52.280;9.500;2023-01-28T08:54:26;101723.47;;;1.86;76.28
15529;BME280;7866;52.280;9.500;2023-01-28T08:59:27;101725.78;;;1.75;75.07
15529;BME280;7866;52.280;9.500;2023-01-28T09:04:34;101728.81;;;1.67;75.94
15529;BME280;7866;52.280;9.500;2023-01-28T09:09:41;101723.38;;;1.70;74.75
15529;BME280;7866;52.280;9.500;2023-01-28T09:14:43;101751.19;;;1.78;74.25
15529;BME280;7866;52.280;9.500;2023-01-28T09:19:46;101755.41;;;1.64;74.29
15529;BME280;7866;52.280;9.500;2023-01-28T09:24:47;101763.03;;;1.34;73.76
15529;BME280;7866;52.280;9.500;2023-01-28T09:29:49;101776.09;;;1.37;74.48
15529;BME280;7866;52.280;9.500;2023-01-28T09:34:52;101782.59;;;1.47;74.95
15529;BME280;7866;52.280;9.500;2023-01-28T09:39:53;101787.50;;;1.38;74.13
15529;BME280;7866;52.280;9.500;2023-01-28T09:45:01;101785.66;;;1.40;75.56
15529;BME280;7866;52.280;9.500;2023-01-28T09:50:07;101769.47;;;1.29;74.67
15529;BME280;7866;52.280;9.500;2023-01-28T09:55:16;101783.19;;;1.18;74.17
15529;BME280;7866;52.280;9.500;2023-01-28T10:00:21;101781.66;;;1.31;74.58
15529;BME280;7866;52.280;9.500;2023-01-28T10:05:32;101786.88;;;1.33;74.14
15529;BME280;7866;52.280;9.500;2023-01-28T10:10:40;101773.53;;;1.36;75.51
15529;BME280;7866;52.280;9.500;2023-01-28T10:15:51;101779.25;;;1.27;74.94
15529;BME280;7866;52.280;9.500;2023-01-28T10:21:01;101773.69;;;1.14;74.81
15529;BME280;7866;52.280;9.500;2023-01-28T10:26:13;101775.72;;;1.45;73.29
15529;BME280;7866;52.280;9.500;2023-01-28T10:31:16;101769.69;;;1.60;71.70
15529;BME280;7866;52.280;9.500;2023-01-28T10:36:19;101757.28;;;1.43;70.72
15529;BME280;7866;52.280;9.500;2023-01-28T10:41:22;101774.50;;;1.52;70.45
15529;BME280;7866;52.280;9.500;2023-01-28T10:46:27;101771.16;;;1.48;69.87
15529;BME280;7866;52.280;9.500;2023-01-28T10:51:33;101771.88;;;1.33;71.06
15529;BME280;7866;52.280;9.500;2023-01-28T10:56:35;101778.22;;;1.65;72.83
15529;BME280;7866;52.280;9.500;2023-01-28T11:01:39;101782.47;;;1.14;71.13
15529;BME280;7866;52.280;9.500;2023-01-28T11:06:51;101776.06;;;1.20;71.50
15529;BME280;7866;52.280;9.500;2023-01-28T11:12:11;101777.94;;;1.35;72.50
15529;BME280;7866;52.280;9.500;2023-01-28T11:17:15;101764.69;;;1.54;72.11
15529;BME280;7866;52.280;9.500;2023-01-28T11:22:23;101776.09;;;1.55;72.75
15529;BME280;7866;52.280;9.500;2023-01-28T11:27:29;101768.94;;;1.39;72.20
15529;BME280;7866;52.280;9.500;2023-01-28T11:32:31;101759.34;;;1.73;72.22
15529;BME280;7866;52.280;9.500;2023-01-28T11:37:34;101764.94;;;1.50;70.42
15529;BME280;7866;52.280;9.500;2023-01-28T11:42:38;101758.88;;;1.65;71.38
15529;BME280;7866;52.280;9.500;2023-01-28T11:47:50;101749.38;;;1.43;70.75
15529;BME280;7866;52.280;9.500;2023-01-28T11:53:01;101742.56;;;1.91;72.29
15529;BME280;7866;52.280;9.500;2023-01-28T11:58:20;101715.44;;;2.05;71.61
15529;BME280;7866;52.280;9.500;2023-01-28T12:03:43;101716.38;;;2.04;71.12
15529;BME280;7866;52.280;9.500;2023-01-28T12:08:55;101710.47;;;1.99;70.67
15529;BME280;7866;52.280;9.500;2023-01-28T12:14:05;101711.88;;;1.71;71.73
15529;BME280;7866;52.280;9.500;2023-01-28T12:19:22;101703.13;;;1.54;71.02
15529;BME280;7866;52.280;9.500;2023-01-28T12:24:36;101679.66;;;1.82;70.77
15529;BME280;7866;52.280;9.500;2023-01-28T12:29:50;101644.09;;;2.05;69.44
15529;BME280;7866;52.280;9.500;2023-01-28T12:40:59;101609.00;;;2.35;69.20
15529;BME280;7866;52.280;9.500;2023-01-28T12:46:10;101582.56;;;2.19;69.75
15529;BME280;7866;52.280;9.500;2023-01-28T12:51:14;101570.63;;;2.43;70.20
15529;BME280;7866;52.280;9.500;2023-01-28T12:56:19;101586.84;;;2.21;70.35
15529;BME280;7866;52.280;9.500;2023-01-28T13:01:27;101609.72;;;1.89;70.32
15529;BME280;7866;52.280;9.500;2023-01-28T13:06:32;101624.28;;;1.81;70.25
15529;BME280;7866;52.280;9.500;2023-01-28T13:11:37;101588.81;;;1.69;71.73
15529;BME280;7866;52.280;9.500;2023-01-28T13:16:40;101600.28;;;2.01;71.15
15529;BME280;7866;52.280;9.500;2023-01-28T13:21:42;101620.94;;;1.77;71.39
15529;BME280;7866;52.280;9.500;2023-01-28T13:26:45;101625.38;;;2.41;71.01
15529;BME280;7866;52.280;9.500;2023-01-28T13:31:52;101631.25;;;2.62;71.20
15529;BME280;7866;52.280;9.500;2023-01-28T13:36:55;101638.59;;;2.41;70.72
15529;BME280;7866;52.280;9.500;2023-01-28T13:42:18;101654.78;;;2.51;70.42
15529;BME280;7866;52.280;9.500;2023-01-28T13:47:26;101661.19;;;2.47;69.97
15529;BME280;7866;52.280;9.500;2023-01-28T13:52:32;101667.38;;;2.63;69.95
15529;BME280;7866;52.280;9.500;2023-01-28T14:03:36;101637.47;;;2.30;70.33
15529;BME280;7866;52.280;9.500;2023-01-28T14:09:09;101629.28;;;2.50;71.55
15529;BME280;7866;52.280;9.500;2023-01-28T14:14:32;101612.00;;;2.44;70.15
15529;BME280;7866;52.280;9.500;2023-01-28T14:19:41;101603.97;;;2.46;70.67
15529;BME280;7866;52.280;9.500;2023-01-28T14:24:45;101580.34;;;2.27;71.51
15529;BME280;7866;52.280;9.500;2023-01-28T14:29:57;101580.50;;;1.92;73.70
15529;BME280;7866;52.280;9.500;2023-01-28T14:35:07;101584.81;;;1.78;74.98
15529;BME280;7866;52.280;9.500;2023-01-28T14:40:12;101605.19;;;1.76;75.09
15529;BME280;7866;52.280;9.500;2023-01-28T14:45:33;101627.06;;;1.78;74.97
15529;BME280;7866;52.280;9.500;2023-01-28T14:50:54;101630.97;;;1.70;75.38
15529;BME280;7866;52.280;9.500;2023-01-28T14:56:06;101636.75;;;1.44;75.80
15529;BME280;7866;52.280;9.500;2023-01-28T15:01:19;101636.59;;;1.30;76.44
15529;BME280;7866;52.280;9.500;2023-01-28T15:06:24;101625.47;;;1.23;76.70
15529;BME280;7866;52.280;9.500;2023-01-28T15:11:26;101618.66;;;1.19;77.19
15529;BME280;7866;52.280;9.500;2023-01-28T15:16:28;101641.94;;;1.11;77.24
15529;BME280;7866;52.280;9.500;2023-01-28T15:21:32;101646.97;;;1.15;77.05
15529;BME280;7866;52.280;9.500;2023-01-28T15:26:35;101639.75;;;1.19;75.69
15529;BME280;7866;52.280;9.500;2023-01-28T15:31:36;101659.56;;;1.10;76.21
15529;BME280;7866;52.280;9.500;2023-01-28T15:36:40;101665.19;;;0.85;77.58
15529;BME280;7866;52.280;9.500;2023-01-28T15:41:44;101658.25;;;0.83;78.49
15529;BME280;7866;52.280;9.500;2023-01-28T15:46:46;101648.31;;;0.70;79.00
15529;BME280;7866;52.280;9.500;2023-01-28T15:51:49;101657.72;;;0.57;79.34
15529;BME280;7866;52.280;9.500;2023-01-28T15:56:51;101647.47;;;0.51;80.58
15529;BME280;7866;52.280;9.500;2023-01-28T16:02:15;101668.34;;;0.37;81.36
15529;BME280;7866;52.280;9.500;2023-01-28T16:07:19;101678.31;;;0.30;80.56
15529;BME280;7866;52.280;9.500;2023-01-28T16:12:21;101678.03;;;0.36;80.79
15529;BME280;7866;52.280;9.500;2023-01-28T16:17:27;101694.53;;;0.21;81.19
15529;BME280;7866;52.280;9.500;2023-01-28T16:22:34;101702.66;;;0.16;81.85
15529;BME280;7866;52.280;9.500;2023-01-28T16:27:36;101703.91;;;0.08;82.76
15529;BME280;7866;52.280;9.500;2023-01-28T16:32:38;101716.59;;;0.18;82.45
15529;BME280;7866;52.280;9.500;2023-01-28T16:37:43;101708.44;;;0.24;82.33
15529;BME280;7866;52.280;9.500;2023-01-28T16:42:45;101672.63;;;0.20;80.50
15529;BME280;7866;52.280;9.500;2023-01-28T16:47:48;101642.84;;;0.18;80.87
15529;BME280;7866;52.280;9.500;2023-01-28T16:52:52;101633.59;;;0.10;81.67
15529;BME280;7866;52.280;9.500;2023-01-28T16:57:55;101660.91;;;0.07;81.82
15529;BME280;7866;52.280;9.500;2023-01-28T17:02:57;101655.94;;;0.01;82.23
15529;BME280;7866;52.280;9.500;2023-01-28T17:08:00;101668.91;;;0.06;82.12
15529;BME280;7866;52.280;9.500;2023-01-28T17:13:02;101655.66;;;0.07;81.59
15529;BME280;7866;52.280;9.500;2023-01-28T17:18:04;101662.56;;;0.10;82.32
15529;BME280;7866;52.280;9.500;2023-01-28T17:23:07;101679.09;;;0.13;81.63
15529;BME280;7866;52.280;9.500;2023-01-28T17:28:12;101666.03;;;0.10;81.62
15529;BME280;7866;52.280;9.500;2023-01-28T17:33:14;101665.78;;;-0.04;81.88
15529;BME280;7866;52.280;9.500;2023-01-28T17:38:17;101687.91;;;-0.08;83.14
15529;BME280;7866;52.280;9.500;2023-01-28T17:43:19;101695.25;;;-0.15;83.11
15529;BME280;7866;52.280;9.500;2023-01-28T17:48:20;101688.34;;;-0.17;83.70
15529;BME280;7866;52.280;9.500;2023-01-28T17:53:23;101687.41;;;-0.16;84.34
15529;BME280;7866;52.280;9.500;2023-01-28T17:58:25;101664.72;;;-0.19;84.03
15529;BME280;7866;52.280;9.500;2023-01-28T18:03:27;101664.13;;;-0.26;83.69
15529;BME280;7866;52.280;9.500;2023-01-28T18:08:30;101680.38;;;-0.16;83.98
15529;BME280;7866;52.280;9.500;2023-01-28T18:13:34;101686.75;;;-0.21;83.60
15529;BME280;7866;52.280;9.500;2023-01-28T18:18:35;101690.56;;;-0.29;84.90
15529;BME280;7866;52.280;9.500;2023-01-28T18:23:38;101698.56;;;-0.30;83.95
15529;BME280;7866;52.280;9.500;2023-01-28T18:28:40;101709.28;;;-0.35;84.62
15529;BME280;7866;52.280;9.500;2023-01-28T18:33:41;101701.72;;;-0.22;85.40
15529;BME280;7866;52.280;9.500;2023-01-28T18:38:44;101701.97;;;-0.28;84.08
15529;BME280;7866;52.280;9.500;2023-01-28T18:43:46;101704.97;;;-0.17;84.57
15529;BME280;7866;52.280;9.500;2023-01-28T18:48:47;101703.16;;;-0.15;84.33
15529;BME280;7866;52.280;9.500;2023-01-28T18:53:50;101704.22;;;-0.19;84.69
15529;BME280;7866;52.280;9.500;2023-01-28T18:58:56;101709.72;;;-0.05;83.18
15529;BME280;7866;52.280;9.500;2023-01-28T19:03:59;101710.19;;;-0.15;84.04
15529;BME280;7866;52.280;9.500;2023-01-28T19:09:04;101715.06;;;-0.06;83.41
15529;BME280;7866;52.280;9.500;2023-01-28T19:14:06;101707.63;;;0.22;83.47
15529;BME280;7866;52.280;9.500;2023-01-28T19:19:08;101719.38;;;0.15;82.77
15529;BME280;7866;52.280;9.500;2023-01-28T19:24:12;101732.09;;;0.06;82.39
15529;BME280;7866;52.280;9.500;2023-01-28T19:29:14;101719.88;;;0.05;83.08
15529;BME280;7866;52.280;9.500;2023-01-28T19:34:15;101711.69;;;0.11;82.25
15529;BME280;7866;52.280;9.500;2023-01-28T19:39:18;101707.53;;;0.05;81.91
15529;BME280;7866;52.280;9.500;2023-01-28T19:44:20;101695.28;;;0.24;82.22
15529;BME280;7866;52.280;9.500;2023-01-28T19:49:22;101684.72;;;0.24;82.18
15529;BME280;7866;52.280;9.500;2023-01-28T19:54:25;101676.31;;;0.35;81.94
15529;BME280;7866;52.280;9.500;2023-01-28T19:59:27;101669.91;;;0.41;81.55
15529;BME280;7866;52.280;9.500;2023-01-28T20:04:28;101680.72;;;0.35;82.22
15529;BME280;7866;52.280;9.500;2023-01-28T20:09:32;101671.97;;;0.34;82.34
15529;BME280;7866;52.280;9.500;2023-01-28T20:14:33;101661.66;;;0.30;80.85
15529;BME280;7866;52.280;9.500;2023-01-28T20:19:35;101663.31;;;0.32;81.22
15529;BME280;7866;52.280;9.500;2023-01-28T20:24:38;101652.81;;;0.31;80.69
15529;BME280;7866;52.280;9.500;2023-01-28T20:29:40;101653.53;;;0.34;80.21
15529;BME280;7866;52.280;9.500;2023-01-28T20:34:41;101652.06;;;0.29;80.31
15529;BME280;7866;52.280;9.500;2023-01-28T20:39:45;101645.84;;;0.30;80.25
15529;BME280;7866;52.280;9.500;2023-01-28T20:44:46;101654.53;;;0.32;81.46
15529;BME280;7866;52.280;9.500;2023-01-28T20:49:48;101663.13;;;0.35;80.62
15529;BME280;7866;52.280;9.500;2023-01-28T20:54:51;101651.47;;;0.41;80.91
15529;BME280;7866;52.280;9.500;2023-01-28T20:59:53;101666.50;;;0.39;81.03
15529;BME280;7866;52.280;9.500;2023-01-28T21:04:54;101656.94;;;0.55;80.85
15529;BME280;7866;52.280;9.500;2023-01-28T21:09:57;101648.38;;;0.69;80.33
15529;BME280;7866;52.280;9.500;2023-01-28T21:14:59;101644.31;;;0.81;81.67
15529;BME280;7866;52.280;9.500;2023-01-28T21:20:00;101640.94;;;0.96;80.07
15529;BME280;7866;52.280;9.500;2023-01-28T21:25:05;101639.44;;;1.08;80.63
15529;BME280;7866;52.280;9.500;2023-01-28T21:30:08;101635.56;;;1.15;79.87
15529;BME280;7866;52.280;9.500;2023-01-28T21:35:10;101633.72;;;1.17;80.44
15529;BME280;7866;52.280;9.500;2023-01-28T21:40:14;101635.19;;;1.22;80.11
15529;BME280;7866;52.280;9.500;2023-01-28T21:45:15;101639.06;;;1.15;80.21
15529;BME280;7866;52.280;9.500;2023-01-28T21:50:17;101639.38;;;1.27;80.76
15529;BME280;7866;52.280;9.500;2023-01-28T21:55:20;101633.97;;;1.30;80.39
15529;BME280;7866;52.280;9.500;2023-01-28T22:00:22;101633.72;;;1.34;80.03
15529;BME280;7866;52.280;9.500;2023-01-28T22:05:23;101632.25;;;1.29;80.14
15529;BME280;7866;52.280;9.500;2023-01-28T22:10:26;101621.69;;;1.29;80.36
15529;BME280;7866;52.280;9.500;2023-01-28T22:15:28;101628.13;;;1.23;80.72
15529;BME280;7866;52.280;9.500;2023-01-28T22:20:30;101623.69;;;1.23;80.49
15529;BME280;7866;52.280;9.500;2023-01-28T22:25:35;101611.81;;;1.15;80.67
15529;BME280;7866;52.280;9.500;2023-01-28T22:30:36;101598.25;;;1.22;79.72
15529;BME280;7866;52.280;9.500;2023-01-28T22:35:38;101603.84;;;1.16;79.79
15529;BME280;7866;52.280;9.500;2023-01-28T22:40:41;101615.41;;;1.14;80.15
15529;BME280;7866;52.280;9.500;2023-01-28T22:45:43;101614.47;;;1.15;79.83
15529;BME280;7866;52.280;9.500;2023-01-28T22:50:44;101611.06;;;1.13;79.57
15529;BME280;7866;52.280;9.500;2023-01-28T22:55:50;101610.22;;;1.12;79.84
15529;BME280;7866;52.280;9.500;2023-01-28T23:00:51;101597.41;;;1.05;79.27
15529;BME280;7866;52.280;9.500;2023-01-28T23:05:56;101606.09;;;1.07;79.69
15529;BME280;7866;52.280;9.500;2023-01-28T23:11:01;101609.56;;;1.07;78.92
15529;BME280;7866;52.280;9.500;2023-01-28T23:16:03;101607.13;;;1.04;78.79
15529;BME280;7866;52.280;9.500;2023-01-28T23:21:24;101599.88;;;0.90;79.12
15529;BME280;7866;52.280;9.500;2023-01-28T23:26:45;101595.31;;;0.94;79.11
15529;BME280;7866;52.280;9.500;2023-01-28T23:31:47;101603.44;;;0.89;78.92
15529;BME280;7866;52.280;9.500;2023-01-28T23:36:50;101596.72;;;1.01;79.70
15529;BME280;7866;52.280;9.500;2023-01-28T23:41:53;101588.31;;;0.93;79.67
15529;BME280;7866;52.280;9.500;2023-01-28T23:46:55;101593.28;;;0.99;79.33
15529;BME280;7866;52.280;9.500;2023-01-28T23:51:56;101581.88;;;0.98;79.61
15529;BME280;7866;52.280;9.500;2023-01-28T23:57:00;101558.53;;;0.91;79.19
